Time;durP1;ratioP1;P1;durP2;ratioP2;P2;SDS_P1;SDS_P2;PMS_P1;PMS_P2;Temp;Humidity;BMP_temperature;BMP_pressure;BME280_temperature;BME280_humidity;BME280_pressure;Samples;Min_cycle;Max_cycle;Signal;HPM_P1;HPM_P2
2024/01/19 00:00:38;;;;;;;7.32;1.05;;;1.80;87.60;;;;;;5016295;28;20033;-81
2024/01/19 00:03:04;;;;;;;8.90;1.00;;;1.70;87.60;;;;;;5031676;28;20053;-82
2024/01/19 00:05:30;;;;;;;4.53;0.90;;;1.70;88.00;;;;;;5015821;28;20070;-82
2024/01/19 00:07:56;;;;;;;5.82;1.30;;;1.70;88.20;;;;;;5032393;28;20046;-82
2024/01/19 00:10:22;;;;;;;5.22;0.80;;;1.70;88.30;;;;;;5016046;28;20142;-81
2024/01/19 00:12:47;;;;;;;7.88;1.15;;;1.80;88.80;;;;;;5016002;28;20044;-82
2024/01/19 00:15:13;;;;;;;3.58;0.60;;;1.80;89.00;;;;;;5015927;28;20035;-81
2024/01/19 00:17:39;;;;;;;3.95;1.55;;;1.80;89.80;;;;;;5032840;28;20132;-81
2024/01/19 00:20:09;;;;;;;5.60;0.77;;;1.70;90.10;;;;;;5032543;28;20477;-82
2024/01/19 00:22:35;;;;;;;4.20;0.80;;;1.70;90.50;;;;;;5032249;28;20084;-80
2024/01/19 00:25:00;;;;;;;6.57;0.90;;;1.70;90.70;;;;;;5015813;28;20073;-81
2024/01/19 00:27:26;;;;;;;6.70;1.30;;;1.60;91.10;;;;;;5032070;28;20041;-81
2024/01/19 00:29:52;;;;;;;5.60;0.90;;;1.60;91.10;;;;;;5016070;28;20080;-81
2024/01/19 00:32:17;;;;;;;7.28;1.67;;;1.50;91.50;;;;;;5015796;28;20525;-81
2024/01/19 00:34:43;;;;;;;4.32;0.95;;;1.50;91.70;;;;;;4999374;28;20379;-81
2024/01/19 00:37:09;;;;;;;6.75;1.08;;;1.50;91.70;;;;;;4999566;28;20374;-81
2024/01/19 00:39:35;;;;;;;8.23;1.15;;;1.30;91.90;;;;;;5015991;28;20363;-81
2024/01/19 00:42:00;;;;;;;11.38;1.10;;;1.30;91.90;;;;;;4999504;28;20042;-81
2024/01/19 00:44:26;;;;;;;4.95;0.70;;;1.30;92.20;;;;;;5015545;28;20041;-81
2024/01/19 00:46:52;;;;;;;3.83;1.00;;;1.30;92.20;;;;;;4999039;28;20045;-81
2024/01/19 00:49:17;;;;;;;4.50;1.10;;;1.30;92.30;;;;;;5015451;28;20080;-81
2024/01/19 00:51:43;;;;;;;4.72;0.93;;;1.20;92.30;;;;;;5032100;28;20038;-81
2024/01/19 00:54:09;;;;;;;4.22;1.00;;;1.10;92.40;;;;;;5015809;28;20457;-82
2024/01/19 00:56:35;;;;;;;6.95;1.30;;;1.20;92.70;;;;;;5015390;28;20124;-81
2024/01/19 00:59:00;;;;;;;9.40;1.50;;;1.10;92.60;;;;;;5015569;28;20064;-81
2024/01/19 01:01:26;;;;;;;4.05;0.95;;;1.10;92.60;;;;;;5015455;28;20059;-82
2024/01/19 01:03:52;;;;;;;4.22;1.10;;;1.00;92.70;;;;;;5015240;28;20041;-82
2024/01/19 01:06:17;;;;;;;7.75;1.35;;;1.00;92.80;;;;;;4999299;28;20127;-82
2024/01/19 01:08:43;;;;;;;6.43;1.83;;;0.80;92.90;;;;;;5015329;28;20041;-82
2024/01/19 01:11:09;;;;;;;8.05;1.77;;;0.80;93.00;;;;;;5015075;28;20034;-81
2024/01/19 01:13:35;;;;;;;5.50;1.10;;;0.70;92.90;;;;;;5032086;28;20033;-81
2024/01/19 01:16:02;;;;;;;5.72;1.15;;;0.70;92.90;;;;;;5019276;28;20044;-81
2024/01/19 01:18:28;;;;;;;12.95;1.98;;;0.60;92.90;;;;;;5035572;28;20042;-82
2024/01/19 01:20:53;;;;;;;4.82;1.23;;;0.50;93.00;;;;;;5019034;28;20059;-81
2024/01/19 01:23:19;;;;;;;5.45;0.82;;;0.40;93.00;;;;;;5019307;28;20037;-81
2024/01/19 01:25:45;;;;;;;5.03;1.13;;;0.30;93.00;;;;;;5035337;28;20383;-82
2024/01/19 01:28:11;;;;;;;6.63;1.77;;;0.20;93.20;;;;;;5018755;28;20051;-81
2024/01/19 01:30:37;;;;;;;8.25;1.45;;;0.10;93.20;;;;;;5018783;28;20080;-81
2024/01/19 01:33:03;;;;;;;5.28;1.08;;;0.20;93.20;;;;;;5035145;28;20045;-81
2024/01/19 01:35:29;;;;;;;5.53;1.40;;;0.20;93.00;;;;;;5035114;28;20069;-81
2024/01/19 01:37:55;;;;;;;3.88;0.90;;;0.20;93.00;;;;;;5018634;28;20084;-82
2024/01/19 01:40:21;;;;;;;5.18;0.80;;;0.20;92.90;;;;;;5035282;28;20037;-82
2024/01/19 01:42:46;;;;;;;4.43;0.88;;;0.20;92.90;;;;;;5035063;28;20124;-81
2024/01/19 01:45:12;;;;;;;2.22;0.57;;;0.30;92.90;;;;;;5018466;28;20103;-81
2024/01/19 01:47:38;;;;;;;2.90;0.77;;;0.40;92.50;;;;;;5034920;28;20448;-82
2024/01/19 01:50:04;;;;;;;6.70;0.90;;;0.60;92.10;;;;;;5002056;28;20129;-81
2024/01/19 01:52:31;;;;;;;2.95;0.90;;;0.70;91.70;;;;;;5002143;28;20099;-81
2024/01/19 01:54:57;;;;;;;7.80;1.10;;;0.80;91.60;;;;;;5018563;28;20158;-81
2024/01/19 01:57:24;;;;;;;7.63;1.63;;;1.00;91.60;;;;;;5018580;28;20033;-82
2024/01/19 01:59:51;;;;;;;4.38;1.23;;;1.00;91.50;;;;;;5034764;28;20045;-82
2024/01/19 02:02:17;;;;;;;5.22;1.00;;;1.10;91.40;;;;;;5018026;28;20058;-83
2024/01/19 02:04:43;;;;;;;3.78;1.08;;;1.30;91.40;;;;;;5034662;28;20053;-82
2024/01/19 02:07:09;;;;;;;7.57;1.20;;;1.40;91.20;;;;;;5018079;28;20092;-82
2024/01/19 02:09:34;;;;;;;1.58;0.60;;;1.50;91.30;;;;;;5018161;28;20044;-81
2024/01/19 02:12:01;;;;;;;6.93;0.90;;;1.40;91.50;;;;;;5001760;28;20132;-82
2024/01/19 02:14:27;;;;;;;7.72;1.33;;;1.30;91.50;;;;;;5017936;28;20076;-83
2024/01/19 02:16:53;;;;;;;6.13;0.80;;;1.30;91.70;;;;;;5018288;28;20034;-82
2024/01/19 02:19:19;;;;;;;3.60;0.90;;;1.30;91.90;;;;;;5017876;28;20128;-83
2024/01/19 02:21:45;;;;;;;6.80;1.23;;;1.20;92.00;;;;;;5034346;28;20049;-82
2024/01/19 02:24:14;;;;;;;4.38;0.93;;;1.20;92.20;;;;;;5034238;28;20042;-83
2024/01/19 02:26:41;;;;;;;4.82;2.30;;;1.20;92.20;;;;;;5017365;28;20045;-82
2024/01/19 02:29:06;;;;;;;8.45;1.20;;;1.20;92.30;;;;;;5034195;28;20033;-82
2024/01/19 02:31:32;;;;;;;6.00;1.00;;;1.20;92.20;;;;;;5001392;28;20128;-82
2024/01/19 02:33:58;;;;;;;8.23;0.93;;;1.10;92.20;;;;;;5001455;28;20368;-82
2024/01/19 02:36:24;;;;;;;6.65;0.98;;;1.10;92.20;;;;;;5017531;28;20103;-81
2024/01/19 02:38:49;;;;;;;6.57;0.80;;;1.10;92.30;;;;;;5001453;28;20390;-82
2024/01/19 02:41:15;;;;;;;5.25;1.58;;;1.10;92.40;;;;;;5017217;28;20034;-82
2024/01/19 02:43:41;;;;;;;4.15;0.95;;;1.10;92.50;;;;;;5033761;28;20038;-82
2024/01/19 02:46:08;;;;;;;4.85;0.98;;;1.10;92.50;;;;;;5001078;28;20040;-82
2024/01/19 02:48:33;;;;;;;7.15;1.77;;;1.10;92.60;;;;;;5017305;28;20052;-82
2024/01/19 02:50:59;;;;;;;10.00;1.67;;;1.20;92.60;;;;;;5017359;28;20034;-82
2024/01/19 02:53:25;;;;;;;13.95;1.58;;;1.20;92.70;;;;;;5034050;28;20034;-82
2024/01/19 02:55:50;;;;;;;8.98;1.05;;;1.30;92.50;;;;;;5001226;28;20128;-82
2024/01/19 02:58:16;;;;;;;2.97;0.95;;;1.40;92.30;;;;;;5017513;28;20497;-82
2024/01/19 03:00:42;;;;;;;7.70;1.65;;;1.40;92.30;;;;;;5000955;28;20107;-82
2024/01/19 03:03:07;;;;;;;6.97;1.42;;;1.40;92.20;;;;;;5000880;28;20517;-82
2024/01/19 03:05:33;;;;;;;3.63;0.70;;;1.30;92.20;;;;;;5016965;28;20041;-82
2024/01/19 03:07:59;;;;;;;8.52;1.40;;;1.30;92.30;;;;;;5000718;28;20041;-82
2024/01/19 03:10:24;;;;;;;4.90;1.67;;;1.30;92.30;;;;;;5033373;28;20037;-82
2024/01/19 03:12:50;;;;;;;11.25;1.35;;;1.30;92.10;;;;;;5016998;28;20040;-82
2024/01/19 03:15:16;;;;;;;4.70;0.75;;;1.30;91.90;;;;;;5000543;28;20037;-82
2024/01/19 03:17:41;;;;;;;4.60;1.10;;;1.20;91.80;;;;;;5017045;28;20049;-82
2024/01/19 03:20:07;;;;;;;6.35;0.75;;;1.10;91.80;;;;;;5016833;28;20414;-82
2024/01/19 03:22:33;;;;;;;4.35;1.70;;;1.10;91.80;;;;;;5033214;28;20517;-82
2024/01/19 03:24:59;;;;;;;6.65;1.42;;;1.10;91.60;;;;;;5016879;28;20041;-82
2024/01/19 03:27:25;;;;;;;6.85;1.20;;;1.10;91.40;;;;;;5033011;28;20045;-82
2024/01/19 03:29:50;;;;;;;7.03;1.23;;;1.00;91.30;;;;;;5016913;28;20090;-82
2024/01/19 03:32:16;;;;;;;5.88;1.65;;;0.90;91.20;;;;;;5016639;28;20037;-82
2024/01/19 03:34:42;;;;;;;4.75;0.80;;;1.00;91.10;;;;;;5000408;28;20135;-82
2024/01/19 03:37:07;;;;;;;3.75;1.40;;;1.00;90.80;;;;;;4999622;28;20041;-82
2024/01/19 03:39:33;;;;;;;4.53;1.00;;;1.00;90.30;;;;;;5017258;28;20136;-82
2024/01/19 03:42:00;;;;;;;6.97;1.08;;;1.00;90.20;;;;;;5016265;28;20516;-82
2024/01/19 03:44:26;;;;;;;3.92;1.10;;;1.00;90.00;;;;;;5016374;28;20045;-82
2024/01/19 03:46:53;;;;;;;6.18;1.88;;;1.00;89.90;;;;;;5032953;28;20383;-82
2024/01/19 03:49:22;;;;;;;5.32;1.23;;;1.00;89.80;;;;;;5033043;28;20103;-82
2024/01/19 03:52:07;;;;;;;8.80;1.77;;;1.10;89.80;;;;;;4999858;28;20128;-82
2024/01/19 03:54:34;;;;;;;11.18;1.92;;;1.10;89.90;;;;;;5016423;28;20060;-82
2024/01/19 03:57:02;;;;;;;8.70;1.73;;;1.10;90.10;;;;;;5016305;28;20045;-82
2024/01/19 03:59:28;;;;;;;11.50;1.92;;;1.20;90.20;;;;;;5032577;28;20049;-82
2024/01/19 04:01:55;;;;;;;11.25;1.67;;;1.30;90.30;;;;;;5015918;28;20057;-82
2024/01/19 04:04:22;;;;;;;5.90;1.73;;;1.30;90.30;;;;;;5015927;28;20072;-82
2024/01/19 04:06:48;;;;;;;11.18;1.60;;;1.40;90.60;;;;;;5016080;28;20494;-82
2024/01/19 04:09:16;;;;;;;5.65;1.60;;;1.30;90.40;;;;;;5016189;28;20137;-82
2024/01/19 04:11:42;;;;;;;6.60;1.55;;;1.40;90.60;;;;;;5032409;28;20034;-82
2024/01/19 04:14:08;;;;;;;9.60;2.35;;;1.40;90.50;;;;;;4999677;28;20120;-82
2024/01/19 04:16:34;;;;;;;6.60;1.40;;;1.30;90.40;;;;;;4999574;28;20120;-81
2024/01/19 04:19:00;;;;;;;11.30;2.13;;;1.20;90.30;;;;;;5016015;28;20033;-81
2024/01/19 04:21:25;;;;;;;8.52;2.72;;;1.20;90.30;;;;;;5015935;28;20048;-82
2024/01/19 04:23:51;;;;;;;8.00;1.17;;;1.20;89.90;;;;;;5015758;28;20073;-82
2024/01/19 04:26:17;;;;;;;3.53;1.35;;;1.20;89.50;;;;;;5015903;28;20396;-82
2024/01/19 04:28:42;;;;;;;8.75;1.08;;;1.10;89.30;;;;;;5015677;28;20084;-81
2024/01/19 04:31:08;;;;;;;6.40;1.00;;;1.00;89.10;;;;;;4999382;28;20044;-81
2024/01/19 04:33:34;;;;;;;7.05;2.75;;;0.90;89.10;;;;;;5015733;28;20033;-82
2024/01/19 04:36:00;;;;;;;7.32;1.45;;;0.90;89.10;;;;;;5032126;28;20056;-81
2024/01/19 04:38:26;;;;;;;6.07;1.10;;;0.90;88.90;;;;;;4999610;28;20042;-81
2024/01/19 04:40:51;;;;;;;3.78;1.00;;;0.80;88.80;;;;;;5015641;28;20041;-81
2024/01/19 04:43:17;;;;;;;5.68;0.90;;;0.80;88.70;;;;;;5015620;28;20037;-82
2024/01/19 04:45:44;;;;;;;4.82;0.73;;;0.70;88.80;;;;;;5032183;28;20037;-81
2024/01/19 04:48:10;;;;;;;6.95;1.40;;;0.60;88.70;;;;;;5033375;28;20040;-82
2024/01/19 04:50:36;;;;;;;10.73;2.53;;;0.60;88.60;;;;;;5003494;28;20041;-81
2024/01/19 04:53:02;;;;;;;3.22;1.05;;;0.50;88.80;;;;;;5036093;28;20371;-81
2024/01/19 04:55:27;;;;;;;8.52;1.05;;;0.50;88.90;;;;;;5019434;28;20045;-81
2024/01/19 04:57:53;;;;;;;7.22;1.60;;;0.40;89.00;;;;;;5003026;28;20045;-81
2024/01/19 05:00:21;;;;;;;7.28;1.42;;;0.40;89.10;;;;;;5003068;28;20410;-81
2024/01/19 05:02:47;;;;;;;6.13;1.20;;;0.40;89.50;;;;;;5003219;28;20115;-82
2024/01/19 05:05:13;;;;;;;6.00;1.23;;;0.30;89.30;;;;;;5019462;28;20037;-81
2024/01/19 05:07:39;;;;;;;8.10;1.00;;;0.20;89.40;;;;;;5019368;28;20877;-81
2024/01/19 05:10:06;;;;;;;8.80;1.50;;;0.10;89.40;;;;;;5019453;28;20483;-81
2024/01/19 05:12:32;;;;;;;7.40;1.40;;;0.10;89.30;;;;;;5035658;28;20045;-81
2024/01/19 05:14:58;;;;;;;4.50;1.27;;;0.10;89.60;;;;;;5035544;28;20041;-82
2024/01/19 05:17:23;;;;;;;2.80;0.98;;;0.00;89.50;;;;;;5019084;28;20043;-81
2024/01/19 05:19:49;;;;;;;9.07;1.35;;;0.00;89.50;;;;;;5035675;28;20071;-81
2024/01/19 05:22:15;;;;;;;7.25;1.17;;;0.00;89.80;;;;;;5035764;28;20041;-82
2024/01/19 05:24:41;;;;;;;8.15;1.77;;;0.00;89.70;;;;;;5035390;28;20486;-82
2024/01/19 05:27:07;;;;;;;6.10;0.80;;;-3276.70;89.70;;;;;;5018897;28;20052;-82
2024/01/19 05:29:34;;;;;;;4.72;1.25;;;-3276.70;89.90;;;;;;5035635;28;20038;-82
2024/01/19 05:32:00;;;;;;;6.22;1.33;;;-3276.70;89.80;;;;;;5018930;28;20042;-82
2024/01/19 05:34:26;;;;;;;9.75;1.30;;;-3276.60;89.80;;;;;;5018766;28;20040;-82
2024/01/19 05:36:52;;;;;;;6.97;1.10;;;-3276.60;89.80;;;;;;5035519;28;20037;-82
2024/01/19 05:39:17;;;;;;;6.63;1.13;;;-3276.60;89.90;;;;;;5002396;28;20600;-82
2024/01/19 05:41:43;;;;;;;9.25;1.77;;;-3276.50;89.90;;;;;;5035053;28;20095;-81
2024/01/19 05:44:09;;;;;;;7.78;1.55;;;-3276.60;90.10;;;;;;5035036;28;20049;-82
2024/01/19 05:46:34;;;;;;;9.00;1.75;;;-3276.60;90.20;;;;;;5035298;28;20135;-83
2024/01/19 05:49:00;;;;;;;11.88;1.50;;;-3276.60;90.10;;;;;;5018823;28;20440;-84
2024/01/19 05:51:26;;;;;;;10.80;1.55;;;-3276.60;90.20;;;;;;5034889;28;20045;-82
2024/01/19 05:53:52;;;;;;;11.13;1.35;;;-3276.60;90.70;;;;;;5018417;28;20076;-82
2024/01/19 05:56:17;;;;;;;6.40;1.85;;;0.00;90.40;;;;;;5034609;28;20037;-82
2024/01/19 05:58:44;;;;;;;7.78;1.85;;;0.00;90.30;;;;;;5034788;28;20051;-82
2024/01/19 06:01:10;;;;;;;8.50;1.45;;;0.00;90.10;;;;;;5033487;28;20058;-82
2024/01/19 06:03:36;;;;;;;10.85;2.08;;;0.00;90.10;;;;;;5018192;28;20052;-82
2024/01/19 06:06:02;;;;;;;4.97;1.02;;;0.10;90.30;;;;;;5034242;28;20042;-82
2024/01/19 06:08:31;;;;;;;6.40;1.50;;;0.10;90.30;;;;;;5017930;28;20099;-82
2024/01/19 06:10:57;;;;;;;8.52;1.25;;;0.10;90.30;;;;;;5001419;28;20496;-82
2024/01/19 06:13:23;;;;;;;9.30;1.75;;;0.20;90.20;;;;;;5002011;28;20045;-82
2024/01/19 06:15:49;;;;;;;13.65;1.92;;;0.20;90.20;;;;;;5034484;28;20044;-82
2024/01/19 06:18:15;;;;;;;8.07;1.67;;;0.20;90.20;;;;;;5034405;28;20045;-82
2024/01/19 06:20:41;;;;;;;10.40;1.75;;;0.20;90.40;;;;;;5017989;28;20045;-82
2024/01/19 06:23:08;;;;;;;7.63;1.65;;;0.10;90.40;;;;;;5034705;28;20052;-82
2024/01/19 06:25:34;;;;;;;16.10;2.72;;;0.10;90.50;;;;;;5001665;28;20037;-82
2024/01/19 06:28:00;;;;;;;6.15;2.42;;;0.10;90.50;;;;;;5017800;28;20056;-82
2024/01/19 06:30:26;;;;;;;12.30;3.03;;;0.10;90.60;;;;;;5001709;28;20029;-82
2024/01/19 06:32:52;;;;;;;10.90;2.72;;;0.00;90.70;;;;;;5017729;28;20477;-82
2024/01/19 06:35:17;;;;;;;7.78;1.85;;;0.00;90.90;;;;;;5034118;28;20052;-82
2024/01/19 06:37:43;;;;;;;12.60;2.55;;;0.00;90.90;;;;;;5017852;28;20128;-82
2024/01/19 06:40:10;;;;;;;11.02;3.05;;;-3276.70;91.10;;;;;;5017570;28;20487;-82
2024/01/19 06:42:36;;;;;;;8.43;2.30;;;-3276.70;91.20;;;;;;5033968;28;20049;-82
2024/01/19 06:45:03;;;;;;;10.98;2.40;;;-3276.70;91.10;;;;;;5017456;28;20486;-82
2024/01/19 06:47:29;;;;;;;12.35;2.70;;;-3276.70;91.10;;;;;;5001149;28;20556;-82
2024/01/19 06:49:54;;;;;;;7.43;2.25;;;-3276.70;91.20;;;;;;5017348;28;20034;-82
2024/01/19 06:52:20;;;;;;;10.40;2.47;;;-3276.70;91.30;;;;;;5033744;28;20034;-82
2024/01/19 06:54:46;;;;;;;12.88;2.67;;;-3276.60;91.30;;;;;;5017299;28;20037;-82
2024/01/19 06:57:11;;;;;;;10.23;2.08;;;-3276.70;91.50;;;;;;5017301;28;20048;-82
2024/01/19 06:59:37;;;;;;;18.10;3.47;;;-3276.70;91.90;;;;;;5001202;28;20096;-82
2024/01/19 07:02:04;;;;;;;14.82;3.33;;;-3276.70;91.70;;;;;;5033706;28;20059;-82
2024/01/19 07:04:30;;;;;;;12.15;2.22;;;-3276.70;91.60;;;;;;5033358;28;20052;-82
2024/01/19 07:06:56;;;;;;;13.70;2.53;;;-3276.70;91.60;;;;;;5033370;28;20041;-82
2024/01/19 07:09:21;;;;;;;14.05;2.75;;;0.00;91.70;;;;;;5017122;28;20034;-82
2024/01/19 07:11:47;;;;;;;14.02;3.45;;;0.00;91.70;;;;;;5000880;28;20041;-82
2024/01/19 07:14:13;;;;;;;13.50;2.38;;;-3276.70;92.10;;;;;;5001002;28;20486;-81
2024/01/19 07:16:40;;;;;;;8.85;2.38;;;0.00;92.10;;;;;;5016857;28;20478;-82
2024/01/19 07:19:05;;;;;;;9.52;2.35;;;-3276.70;92.10;;;;;;5016968;28;20041;-82
2024/01/19 07:21:39;;;;;;;17.08;3.10;;;-3276.70;92.10;;;;;;5016826;28;20374;-81
2024/01/19 07:24:10;;;;;;;13.63;2.45;;;-3276.70;92.00;;;;;;5033086;28;20048;-81
2024/01/19 07:26:36;;;;;;;11.30;2.22;;;-3276.70;92.30;;;;;;5016589;28;20047;-82
2024/01/19 07:29:06;;;;;;;8.93;2.33;;;-3276.70;92.10;;;;;;5016872;28;20037;-81
2024/01/19 07:31:35;;;;;;;12.25;2.30;;;-3276.70;92.40;;;;;;5016730;28;20045;-82
2024/01/19 07:34:00;;;;;;;9.20;1.92;;;-3276.70;92.40;;;;;;5017277;28;20029;-81
2024/01/19 07:36:26;;;;;;;9.15;2.38;;;-3276.70;92.30;;;;;;5016482;28;20546;-81
2024/01/19 07:38:52;;;;;;;12.18;2.80;;;-3276.70;92.40;;;;;;5032601;28;20165;-81
2024/01/19 07:41:18;;;;;;;12.93;2.45;;;0.00;92.20;;;;;;5016198;28;20083;-81
2024/01/19 07:43:44;;;;;;;9.23;2.22;;;-3276.70;92.30;;;;;;5016284;28;20048;-82
2024/01/19 07:46:11;;;;;;;11.73;2.65;;;-3276.70;92.30;;;;;;5032979;28;20037;-82
2024/01/19 07:48:37;;;;;;;15.75;2.72;;;-3276.70;92.20;;;;;;5032585;28;20041;-81
2024/01/19 07:51:03;;;;;;;11.30;2.45;;;-3276.60;92.20;;;;;;5016359;28;20037;-82
2024/01/19 07:53:29;;;;;;;10.90;2.20;;;-3276.60;92.20;;;;;;5016226;28;20041;-82
2024/01/19 07:55:54;;;;;;;11.85;1.95;;;-3276.60;92.20;;;;;;4999821;28;20064;-81
2024/01/19 07:58:21;;;;;;;12.60;2.53;;;-3276.60;92.10;;;;;;4978567;28;20064;-82
2024/01/19 08:00:47;;;;;;;15.27;3.70;;;-3276.70;92.10;;;;;;4997342;28;20049;-82
2024/01/19 08:03:14;;;;;;;11.20;4.70;;;-3276.70;92.00;;;;;;4989210;28;20485;-82
2024/01/19 08:05:40;;;;;;;11.32;4.07;;;0.00;92.00;;;;;;4996318;28;20077;-81
2024/01/19 08:08:05;;;;;;;11.90;3.75;;;0.00;92.00;;;;;;4996167;28;20459;-81
2024/01/19 08:10:32;;;;;;;12.27;2.70;;;0.00;91.90;;;;;;5012743;28;20108;-81
2024/01/19 08:12:59;;;;;;;12.07;2.88;;;0.00;91.70;;;;;;4980456;28;20042;-81
2024/01/19 08:15:26;;;;;;;11.98;2.28;;;0.00;91.80;;;;;;5012406;28;20064;-81
2024/01/19 08:17:51;;;;;;;12.35;2.80;;;0.10;91.50;;;;;;5012156;28;20108;-82
2024/01/19 08:20:17;;;;;;;10.13;2.72;;;0.10;91.50;;;;;;4979625;28;20037;-83
2024/01/19 08:22:43;;;;;;;12.75;2.42;;;0.10;91.10;;;;;;4979549;28;20087;-82
2024/01/19 08:25:09;;;;;;;13.80;2.90;;;0.10;91.10;;;;;;4995936;28;20099;-81
2024/01/19 08:27:39;;;;;;;10.10;2.22;;;0.10;90.50;;;;;;4997145;28;20042;-82
2024/01/19 08:30:05;;;;;;;14.25;3.22;;;0.10;90.80;;;;;;5012903;28;20038;-83
2024/01/19 08:32:31;;;;;;;11.77;2.60;;;0.10;90.90;;;;;;5012714;28;20095;-82
2024/01/19 08:34:57;;;;;;;12.05;2.50;;;0.20;90.80;;;;;;4996057;28;20034;-82
2024/01/19 08:37:22;;;;;;;12.95;2.70;;;0.10;90.50;;;;;;4995970;28;20133;-82
2024/01/19 08:39:48;;;;;;;12.90;2.45;;;0.10;90.50;;;;;;4979431;28;20042;-82
2024/01/19 08:42:14;;;;;;;15.10;2.40;;;0.10;90.40;;;;;;4996190;28;20398;-82
2024/01/19 08:44:44;;;;;;;9.70;2.22;;;0.10;90.30;;;;;;4996229;28;20406;-82
2024/01/19 08:47:10;;;;;;;10.75;2.55;;;0.10;90.20;;;;;;4996300;28;20042;-82
2024/01/19 08:49:36;;;;;;;11.27;2.25;;;0.20;90.10;;;;;;4996427;28;20046;-82
2024/01/19 08:52:02;;;;;;;7.25;2.28;;;0.20;90.10;;;;;;5012674;28;20553;-83
2024/01/19 08:54:28;;;;;;;14.45;3.70;;;0.20;90.10;;;;;;4979851;28;20502;-83
2024/01/19 08:56:54;;;;;;;17.20;2.88;;;0.20;90.00;;;;;;5012166;28;20092;-83
2024/01/19 08:59:21;;;;;;;14.25;3.05;;;0.30;90.40;;;;;;4996190;28;20394;-81
2024/01/19 09:01:47;;;;;;;8.65;2.47;;;0.30;90.00;;;;;;4998673;28;20518;-83
2024/01/19 09:04:13;;;;;;;13.07;5.13;;;0.30;90.00;;;;;;4999636;28;20038;-81
2024/01/19 09:06:38;;;;;;;15.95;4.47;;;0.40;90.00;;;;;;5025580;28;20088;-83
2024/01/19 09:09:04;;;;;;;9.63;3.05;;;0.40;90.10;;;;;;5015438;28;20037;-83
2024/01/19 09:11:34;;;;;;;15.15;3.55;;;0.50;90.10;;;;;;5015698;28;20044;-81
2024/01/19 09:14:00;;;;;;;14.05;3.20;;;0.60;89.80;;;;;;5015616;28;20037;-82
2024/01/19 09:16:25;;;;;;;14.30;3.35;;;0.70;89.80;;;;;;4999086;28;20069;-82
2024/01/19 09:18:51;;;;;;;13.23;4.07;;;0.70;89.70;;;;;;5015619;28;20091;-82
2024/01/19 09:21:17;;;;;;;18.63;4.95;;;0.80;89.70;;;;;;5031839;28;20128;-81
2024/01/19 09:23:43;;;;;;;11.27;3.67;;;0.90;89.40;;;;;;5015412;28;20037;-80
2024/01/19 09:26:20;;;;;;;9.45;3.63;;;1.00;89.40;;;;;;5014911;28;20406;-82
2024/01/19 09:28:47;;;;;;;13.25;3.53;;;1.10;89.30;;;;;;5014300;28;20037;-81
2024/01/19 09:31:13;;;;;;;16.02;3.60;;;1.20;89.10;;;;;;5014704;28;20498;-82
2024/01/19 09:33:39;;;;;;;11.27;3.05;;;1.40;89.00;;;;;;5014800;28;20095;-83
2024/01/19 09:36:06;;;;;;;10.15;2.20;;;1.50;88.90;;;;;;5017332;28;20124;-83
2024/01/19 09:38:35;;;;;;;11.93;2.63;;;1.60;88.80;;;;;;5002072;28;20045;-81
2024/01/19 09:41:36;;;;;;;14.15;3.17;;;1.60;88.50;;;;;;5018223;28;20041;-82
2024/01/19 09:44:07;;;;;;;10.75;2.30;;;1.70;88.00;;;;;;5018456;28;20045;-82
2024/01/19 09:46:50;;;;;;;14.88;2.47;;;1.70;88.00;;;;;;5017988;28;20072;-82
2024/01/19 09:49:39;;;;;;;18.48;2.42;;;1.70;87.90;;;;;;5018214;28;20096;-82
2024/01/19 09:52:26;;;;;;;10.57;2.05;;;1.90;87.90;;;;;;5018102;28;20044;-82
2024/01/19 09:54:54;;;;;;;6.47;2.22;;;1.90;88.00;;;;;;5034392;28;20490;-82
2024/01/19 09:57:20;;;;;;;10.32;1.90;;;2.10;87.90;;;;;;5034245;28;20127;-82
2024/01/19 09:59:45;;;;;;;9.27;1.83;;;2.10;87.70;;;;;;5017809;28;20045;-81
2024/01/19 10:02:13;;;;;;;13.80;2.22;;;2.20;87.70;;;;;;5018079;28;20053;-81
2024/01/19 10:04:39;;;;;;;8.40;1.85;;;2.20;87.60;;;;;;5034784;28;20053;-81
2024/01/19 10:07:06;;;;;;;7.97;2.00;;;2.30;87.60;;;;;;5001785;28;20377;-81
2024/01/19 10:09:33;;;;;;;12.27;3.17;;;2.50;87.50;;;;;;5019089;28;20041;-81
2024/01/19 10:11:59;;;;;;;10.80;3.13;;;2.50;87.50;;;;;;5001881;28;20095;-81
2024/01/19 10:14:26;;;;;;;11.18;3.70;;;2.60;87.40;;;;;;5002074;28;20128;-82
2024/01/19 10:16:52;;;;;;;12.68;2.88;;;2.60;87.30;;;;;;4985888;28;20041;-81
2024/01/19 10:19:20;;;;;;;10.75;1.92;;;2.60;86.90;;;;;;5017951;28;20072;-81
2024/01/19 10:21:46;;;;;;;18.80;3.15;;;2.70;87.20;;;;;;5002115;28;20040;-82
2024/01/19 10:24:19;;;;;;;15.82;3.13;;;2.80;87.00;;;;;;5017993;28;20068;-82
2024/01/19 10:26:52;;;;;;;14.65;2.00;;;2.80;86.70;;;;;;5002489;28;20486;-81
2024/01/19 10:29:19;;;;;;;13.48;2.47;;;2.90;86.70;;;;;;5034253;28;20053;-79
2024/01/19 10:31:49;;;;;;;5.75;1.95;;;3.00;86.50;;;;;;5017774;28;20033;-82
2024/01/19 10:34:17;;;;;;;8.25;2.90;;;3.10;86.50;;;;;;5034154;28;20053;-82
2024/01/19 10:36:44;;;;;;;13.88;2.53;;;3.10;86.20;;;;;;5034368;28;20041;-80
2024/01/19 10:39:26;;;;;;;8.75;1.92;;;3.20;85.80;;;;;;5034141;28;20037;-81
2024/01/19 10:42:04;;;;;;;8.85;1.88;;;3.30;85.90;;;;;;5034096;28;20034;-81
2024/01/19 10:44:30;;;;;;;11.32;1.45;;;3.50;85.30;;;;;;5017879;28;20080;-80
2024/01/19 10:46:56;;;;;;;5.63;1.73;;;3.60;85.00;;;;;;5017134;28;20077;-81
2024/01/19 10:49:22;;;;;;;8.40;1.95;;;3.70;84.30;;;;;;5035530;28;20445;-81
2024/01/19 10:51:48;;;;;;;8.25;1.98;;;3.70;84.00;;;;;;4999924;28;20068;-80
2024/01/19 10:54:24;;;;;;;11.30;2.85;;;3.80;84.10;;;;;;5032680;28;20083;-81
2024/01/19 10:57:05;;;;;;;5.95;1.63;;;3.80;83.80;;;;;;5032528;28;20041;-80
2024/01/19 10:59:32;;;;;;;3.92;1.30;;;4.00;83.60;;;;;;5033203;28;20041;-80
2024/01/19 11:01:59;;;;;;;9.15;1.67;;;4.10;83.00;;;;;;5016514;28;20099;-81
2024/01/19 11:04:25;;;;;;;10.85;1.88;;;4.10;82.90;;;;;;5033212;28;20083;-80
2024/01/19 11:06:51;;;;;;;9.43;2.22;;;4.10;82.50;;;;;;5033241;28;20064;-79
2024/01/19 11:09:17;;;;;;;12.23;2.10;;;4.20;82.50;;;;;;4984021;28;20477;-83
2024/01/19 11:11:49;;;;;;;10.52;2.60;;;4.20;82.70;;;;;;5016651;28;20124;-81
2024/01/19 11:14:20;;;;;;;8.98;1.95;;;4.30;82.70;;;;;;5032906;28;20095;-80
2024/01/19 11:16:48;;;;;;;7.85;1.33;;;4.40;82.60;;;;;;5016718;28;20037;-81
2024/01/19 11:19:16;;;;;;;12.05;2.35;;;4.40;82.80;;;;;;5016399;28;20045;-80
2024/01/19 11:21:43;;;;;;;10.38;2.05;;;4.50;82.90;;;;;;5033141;28;20037;-82
2024/01/19 11:24:10;;;;;;;7.20;1.58;;;4.60;82.60;;;;;;5032036;28;20048;-81
2024/01/19 11:27:02;;;;;;;10.57;1.98;;;4.60;82.50;;;;;;5015613;28;20034;-80
2024/01/19 11:29:42;;;;;;;4.32;1.25;;;4.60;82.10;;;;;;5027855;28;20081;-80
2024/01/19 11:32:09;;;;;;;7.28;1.63;;;4.70;81.90;;;;;;5031859;28;20201;-82
2024/01/19 11:34:45;;;;;;;13.75;2.47;;;4.70;82.00;;;;;;5015426;28;20090;-81
2024/01/19 11:37:41;;;;;;;5.45;1.48;;;4.70;81.90;;;;;;5015492;28;20077;-81
2024/01/19 11:40:07;;;;;;;9.20;2.20;;;4.80;81.60;;;;;;5007134;28;20091;-81
2024/01/19 11:42:42;;;;;;;8.18;1.70;;;4.80;81.50;;;;;;5016256;28;20037;-81
2024/01/19 11:45:08;;;;;;;7.47;1.90;;;4.90;81.40;;;;;;5016099;28;20056;-81
2024/01/19 11:47:37;;;;;;;8.77;1.77;;;4.90;81.20;;;;;;5015989;28;20409;-80
2024/01/19 11:50:04;;;;;;;8.70;1.60;;;5.00;81.10;;;;;;5036145;28;20045;-80
2024/01/19 11:52:32;;;;;;;8.38;1.58;;;5.00;81.10;;;;;;5036344;28;20084;-81
2024/01/19 11:54:57;;;;;;;5.15;1.80;;;5.10;80.70;;;;;;5032382;28;20433;-81
2024/01/19 11:57:26;;;;;;;8.60;1.67;;;5.10;80.50;;;;;;4998866;28;20049;-81
2024/01/19 11:59:55;;;;;;;11.35;2.35;;;5.10;80.30;;;;;;5015956;28;20398;-81
2024/01/19 12:02:31;;;;;;;9.88;2.30;;;5.10;80.50;;;;;;5031843;28;20061;-80
2024/01/19 12:05:07;;;;;;;7.30;2.35;;;5.30;79.90;;;;;;5032041;28;20052;-80
2024/01/19 12:07:33;;;;;;;10.38;1.90;;;5.30;79.90;;;;;;5016603;28;20120;-80
2024/01/19 12:10:31;;;;;;;4.85;1.50;;;5.40;80.20;;;;;;5031954;28;20045;-80
2024/01/19 12:12:57;;;;;;;6.35;1.35;;;5.50;80.20;;;;;;4993690;28;20057;-80
2024/01/19 12:15:23;;;;;;;9.73;1.85;;;5.60;80.00;;;;;;5015768;28;20048;-80
2024/01/19 12:17:49;;;;;;;7.32;1.60;;;5.60;79.30;;;;;;4999433;28;20474;-80
2024/01/19 12:20:17;;;;;;;10.13;1.50;;;5.50;78.80;;;;;;5031874;28;20034;-80
2024/01/19 12:22:44;;;;;;;5.32;1.38;;;5.60;78.80;;;;;;5031773;28;20045;-80
2024/01/19 12:25:18;;;;;;;5.60;1.40;;;5.60;78.30;;;;;;5031669;28;20056;-80
2024/01/19 12:27:46;;;;;;;6.38;2.08;;;5.60;78.20;;;;;;5015194;28;20041;-81
2024/01/19 12:30:17;;;;;;;10.60;1.63;;;5.60;78.00;;;;;;5015354;28;20041;-80
2024/01/19 12:32:44;;;;;;;6.60;1.60;;;5.70;78.00;;;;;;5015230;28;20041;-81
2024/01/19 12:35:11;;;;;;;12.63;3.72;;;5.70;78.00;;;;;;5032157;28;20038;-82
2024/01/19 12:37:37;;;;;;;8.50;1.70;;;5.70;77.90;;;;;;5016195;28;20379;-81
2024/01/19 12:40:12;;;;;;;7.72;1.45;;;5.80;77.50;;;;;;5031773;28;20041;-82
2024/01/19 12:42:38;;;;;;;14.95;2.22;;;5.70;77.20;;;;;;5015363;28;20081;-80
2024/01/19 12:45:04;;;;;;;10.52;1.40;;;5.80;77.10;;;;;;5015152;28;20512;-80
2024/01/19 12:47:30;;;;;;;8.45;1.92;;;5.80;76.90;;;;;;5031604;28;20375;-80